• Join FlightAware (Why Join?)
  • Login
  • US Flag 
02:41PM EDT


 

Airport Tracker/Info


-or-


 

Live Flight TrackerFlight Track Log ✈ JZA7927 ✈ 17-May-2013 ✈ KBWI - CYYZ

Flight Track Log - Related Links

Times and Time Zones

All times are in EDT time to prevent confusion due to time zone crossing. See the JZA7927 flight status page for this flight to view local times or setup timezone preferences in your user account.

Time Position Orientation Groundspeed Altitude Reporting Facility
EDT Latitude Longitude Course Direction KTS MPH feet Rate Location/Type
06:15AM 39.2000 -76.6667 North 114 131 800  Level Potomac TRACON
06:16AM 39.2167 -76.7000 303° West 126 145 1,900 1,140 Climbing Potomac TRACON
06:16AM 39.2500 -76.7167 339° North 132 152 2,800 960 Climbing Potomac TRACON
06:17AM 39.2833 -76.7500 322° Northwest 146 168 3,700 840 Climbing Potomac TRACON
06:18AM 39.4135 -76.6599 21° North  Level FlightAware Approximate
06:18AM 39.3167 -76.7500 360° North 160 184 4,500  Level Potomac TRACON
06:19AM 39.4714 -76.6246 27° Northeast  Level FlightAware Approximate
06:19AM 39.3500 -76.7333 21° North 168 193 5,500  Level Potomac TRACON
06:20AM 39.5340 -76.6167 North  Level FlightAware Approximate
06:21AM 39.4217 -76.7133 12° North 171 197 7,000  Level New York Center
06:22AM 39.4703 -76.6986 13° North 159 183 7,900 720 Climbing New York Center
06:23AM 39.5128 -76.6861 13° North 164 189 8,500 660 Climbing New York Center
06:24AM 39.5678 -76.6664 15° North 169 194 9,300 720 Climbing New York Center
06:25AM 39.6125 -76.6514 14° North 177 204 10,000 780 Climbing New York Center
06:26AM 39.6717 -76.6347 12° North 182 209 10,900 780 Climbing New York Center
06:27AM 39.7183 -76.6197 14° North 182 209 11,600 840 Climbing New York Center
06:28AM 39.7747 -76.6189 North 182 209 12,600 900 Climbing New York Center
06:29AM 39.8103 -76.6544 322° Northwest 175 201 13,400 660 Climbing New York Center
06:30AM 39.8544 -76.6906 328° Northwest 180 207 14,000 240 Climbing New York Center
06:31AM 39.8964 -76.7264 327° Northwest 192 221 14,000  Level New York Center
06:32AM 39.9522 -76.7747 326° Northwest 210 242 14,000  Level New York Center
06:33AM 39.9983 -76.8139 327° Northwest 210 242 14,000 360 Level New York Center
06:34AM 40.0544 -76.8594 328° Northwest 217 250 14,800 600 Climbing New York Center
06:35AM 40.0964 -76.8956 327° Northwest 205 236 15,200 420 Climbing New York Center
06:36AM 40.1481 -76.9408 326° Northwest 205 236 15,700 360 Climbing New York Center
06:37AM 40.1919 -76.9775 327° Northwest 205 236 16,000 120 Climbing New York Center
06:38AM 40.2458 -77.0231 327° Northwest 205 236 16,000  Level New York Center
06:39AM 40.2939 -77.0628 328° Northwest 205 236 16,000  Level New York Center
06:40AM 40.3633 -77.0500 North 205 236 16,000  Level New York Center
06:41AM 40.4189 -77.0250 19° North 223 257 16,000  Level New York Center
06:42AM 40.4819 -77.0525 342° North 217 250 16,000  Level New York Center
06:43AM 40.5303 -77.0869 332° Northwest 217 250 16,000  Level New York Center
06:44AM 40.5908 -77.1228 336° Northwest 224 258 16,000  Level New York Center
06:45AM 40.6392 -77.1544 334° Northwest 218 251 16,000  Level New York Center
06:46AM 40.6956 -77.1900 334° Northwest 213 245 16,000  Level New York Center
06:47AM 40.7500 -77.2250 334° Northwest 213 245 16,000  Level New York Center
06:48AM 40.8044 -77.2606 334° Northwest 213 245 16,000  Level New York Center
06:49AM 40.8608 -77.2933 336° Northwest 213 245 16,000  Level New York Center
06:50AM 40.9172 -77.3289 335° Northwest 213 245 16,000  Level New York Center
06:51AM 40.9736 -77.3644 335° Northwest 213 245 16,000  Level New York Center
06:53AM 41.0850 -77.4369 334° Northwest 210 242 16,000  Level Cleveland Center
06:54AM 41.1400 -77.4703 335° Northwest 210 242 16,000  Level Cleveland Center
06:55AM 41.1933 -77.5064 333° Northwest 210 242 16,000  Level Cleveland Center
06:56AM 41.2547 -77.5447 335° Northwest 210 242 16,000  Level Cleveland Center
06:57AM 41.3078 -77.5783 335° Northwest 210 242 16,000  Level Cleveland Center
06:58AM 41.3608 -77.6117 335° Northwest 210 242 16,000  Level Cleveland Center
06:59AM 41.4139 -77.6481 333° Northwest 210 242 16,100  Climbing Cleveland Center
07:00AM 41.4667 -77.6789 336° Northwest 210 242 16,100  Level Cleveland Center
07:01AM 41.5197 -77.7156 333° Northwest 210 242 16,100  Level Cleveland Center
07:02AM 41.5728 -77.7492 335° Northwest 210 242 16,100  Level Cleveland Center
07:03AM 41.6256 -77.7831 334° Northwest 205 236 16,100  Level Cleveland Center
07:04AM 41.6764 -77.8169 334° Northwest 205 236 16,100  Level Cleveland Center
07:05AM 41.7294 -77.8508 335° Northwest 205 236 16,100  Level Cleveland Center
07:06AM 41.7803 -77.8850 333° Northwest 205 236 16,100  Level Cleveland Center
07:07AM 41.8311 -77.9161 335° Northwest 205 236 16,100  Level Cleveland Center
07:08AM 41.8842 -77.9531 333° Northwest 205 236 16,100  Level Cleveland Center
07:09AM 41.9369 -77.9872 334° Northwest 205 236 16,100  Level Cleveland Center
07:10AM 41.9919 -78.0214 335° Northwest 205 236 16,100  Level Cleveland Center
07:11AM 42.0428 -78.0556 333° Northwest 205 236 16,100  Level Cleveland Center
07:12AM 42.0956 -78.0897 334° Northwest 205 236 16,100  Level Cleveland Center
07:13AM 42.1483 -78.1242 334° Northwest 205 236 16,100  Level Cleveland Center
07:14AM 42.2014 -78.1586 334° Northwest 205 236 16,100  Level Cleveland Center
07:15AM 42.2542 -78.1931 334° Northwest 205 236 16,100  Level Cleveland Center
07:16AM 42.3047 -78.2275 333° Northwest 205 236 16,100 -60 Level Cleveland Center
07:17AM 42.3578 -78.2622 334° Northwest 205 236 16,000 -60 Descending Cleveland Center
07:18AM 42.4106 -78.2997 332° Northwest 205 236 16,000  Level Cleveland Center
07:19AM 42.4633 -78.3344 334° Northwest 205 236 16,000  Level Cleveland Center
07:20AM 42.5161 -78.3664 336° Northwest 205 236 16,000  Level Cleveland Center
07:21AM 42.5625 -78.3983 333° Northwest 205 236 16,000  Level Cleveland Center
07:22AM 42.6153 -78.4333 334° Northwest 205 236 16,000 -60 Level Cleveland Center
07:23AM 42.6681 -78.4711 332° Northwest 205 236 15,900 -600 Descending Cleveland Center
07:24AM 42.7272 -78.5114 333° Northwest 211 243 14,900 -960 Descending Cleveland Center
07:25AM 42.7842 -78.5519 332° Northwest 222 255 14,000 -480 Descending Cleveland Center
07:26AM 42.8453 -78.5897 336° Northwest 222 255 14,000  Level Cleveland Center
07:27AM 42.9000 -78.6275 333° Northwest 222 255 14,000  Level Cleveland Center
07:28AM 42.9489 -78.6714 327° Northwest 217 250 14,000 -180 Level Cleveland Center
07:29AM 42.9811 -78.7386 303° West 211 243 13,700 -300 Descending Cleveland Center